createdAt,value
2019-05-02T00:03:08.818Z,24.3
2019-05-02T00:13:08.029Z,24.3
2019-05-02T00:23:07.246Z,24.3
2019-05-02T00:33:06.460Z,24.1
2019-05-02T00:43:05.676Z,24.1
2019-05-02T00:53:07.065Z,24
2019-05-02T01:03:04.112Z,24.1
2019-05-02T01:13:03.327Z,24.1
2019-05-02T01:23:02.548Z,24.1
2019-05-02T01:33:06.331Z,24.2
2019-05-02T01:43:00.975Z,24.2
2019-05-02T01:53:00.234Z,24.1
2019-05-02T02:02:59.411Z,24.1
2019-05-02T02:13:04.575Z,24.1
2019-05-02T02:22:57.896Z,24.1
2019-05-02T02:33:00.351Z,24.1
2019-05-02T02:42:56.272Z,24.1
2019-05-02T02:52:55.490Z,24.1
2019-05-02T03:02:54.703Z,24.1
2019-05-02T03:12:53.911Z,23.9
2019-05-02T03:22:53.127Z,23.9
2019-05-02T03:33:04.517Z,23.9
2019-05-02T03:42:51.606Z,23.9
2019-05-02T03:52:50.772Z,23.9
2019-05-02T04:02:58.888Z,23.9
2019-05-02T04:12:52.922Z,23.8
2019-05-02T04:22:48.851Z,23.8
2019-05-02T04:32:49.553Z,23.8
2019-05-02T04:42:51.117Z,23.8
2019-05-02T04:52:52.282Z,23.8
2019-05-02T05:02:48.212Z,23.7
2019-05-02T05:12:44.506Z,23.6
2019-05-02T05:22:44.393Z,23.6
2019-05-02T05:32:42.932Z,23.6
2019-05-02T05:52:42.475Z,23.6
2019-05-02T06:02:52.552Z,23.6
2019-05-02T06:12:39.782Z,23.5
2019-05-02T06:22:38.993Z,23.5
2019-05-02T06:32:38.209Z,23.5
2019-05-02T06:42:38.014Z,23.5
2019-05-02T06:52:36.639Z,23.5
2019-05-02T07:02:35.846Z,23.4
2019-05-02T07:12:35.061Z,23.5
2019-05-02T07:22:38.603Z,23.5
2019-05-02T07:32:33.495Z,23.5
2019-05-02T07:42:36.810Z,23.5
2019-05-02T07:52:33.594Z,23.4
2019-05-02T08:02:31.132Z,23.4
2019-05-02T08:12:30.401Z,23.5
2019-05-02T08:22:29.559Z,23.5
2019-05-02T08:32:28.780Z,23.5
2019-05-02T08:42:32.497Z,23.5
2019-05-02T08:52:27.203Z,23.4
2019-05-02T09:02:27.368Z,23.4
2019-05-02T09:12:25.626Z,23.4
2019-05-02T09:22:24.837Z,23.4
2019-05-02T09:32:26.173Z,23.4
2019-05-02T09:42:23.261Z,23.4
2019-05-02T09:52:22.474Z,23.5
2019-05-02T10:02:22.236Z,23.5
2019-05-02T10:12:22.673Z,23.6
2019-05-02T10:22:20.123Z,23.6
2019-05-02T10:32:19.334Z,23.6
2019-05-02T10:42:18.549Z,23.6
2019-05-02T10:52:21.472Z,23.6
2019-05-02T11:02:16.978Z,23.6
2019-05-02T11:12:20.836Z,23.6
2019-05-02T11:22:15.408Z,23.6
2019-05-02T11:32:14.625Z,23.6
2019-05-02T11:42:17.589Z,23.6
2019-05-02T11:52:13.056Z,23.6
2019-05-02T12:02:17.071Z,23.6
2019-05-02T12:12:12.351Z,23.6
2019-05-02T12:22:12.666Z,23.6
2019-05-02T12:32:11.880Z,23.6
2019-05-02T12:42:09.304Z,23.6
2019-05-02T12:52:08.376Z,23.6
2019-05-02T13:02:07.545Z,23.6
2019-05-02T13:12:06.753Z,23.6
2019-05-02T13:22:05.964Z,23.6
2019-05-02T13:32:08.610Z,23.6
2019-05-02T13:42:04.396Z,23.6
2019-05-02T13:52:03.602Z,23.6
2019-05-02T14:02:02.933Z,23.6
2019-05-02T14:12:02.104Z,23.6
2019-05-02T14:22:02.926Z,23.6
2019-05-02T14:32:02.438Z,23.7
2019-05-02T14:41:59.670Z,23.7
2019-05-02T14:52:02.709Z,23.6
2019-05-02T15:02:02.968Z,23.7
2019-05-02T15:11:57.304Z,23.7
2019-05-02T15:21:56.512Z,23.6
2019-05-02T15:31:57.858Z,23.7
2019-05-02T15:41:54.945Z,23.7
2019-05-02T15:51:54.157Z,23.7
2019-05-02T16:01:53.376Z,23.7
2019-05-02T16:11:56.710Z,23.8
2019-05-02T16:21:52.064Z,23.8
2019-05-02T16:31:54.865Z,23.8
2019-05-02T16:41:51.013Z,23.8
2019-05-02T16:51:49.438Z,23.8
2019-05-02T17:01:48.653Z,23.8
2019-05-02T17:11:47.865Z,23.8
2019-05-02T17:21:53.602Z,23.8
2019-05-02T17:31:49.939Z,23.8
2019-05-02T17:41:45.782Z,23.8
2019-05-02T17:51:44.729Z,23.8
2019-05-02T18:01:43.937Z,23.8
2019-05-02T18:11:43.156Z,23.8
2019-05-02T18:21:42.376Z,23.8
2019-05-02T18:31:47.195Z,23.8
2019-05-02T18:41:42.609Z,23.8
2019-05-02T18:51:40.015Z,23.8
2019-05-02T19:01:39.223Z,23.9
2019-05-02T19:11:38.447Z,23.9
2019-05-02T19:21:39.432Z,23.9
2019-05-02T19:31:41.487Z,23.9
2019-05-02T19:41:38.941Z,24
2019-05-02T19:51:35.294Z,24.1
2019-05-02T20:01:34.516Z,24.1
2019-05-02T20:11:34.386Z,24.1
2019-05-02T20:21:32.946Z,24.1
2019-05-02T20:31:32.281Z,24.1
2019-05-02T20:41:31.372Z,24.1
2019-05-02T20:51:31.889Z,24.1
2019-05-02T21:01:29.798Z,24.1
2019-05-02T21:11:29.064Z,24.1
2019-05-02T21:21:28.229Z,24.1
2019-05-02T21:31:27.432Z,24.2
2019-05-02T21:41:26.648Z,24.2
2019-05-02T21:51:25.868Z,24.2
2019-05-02T22:01:25.078Z,24.3
2019-05-02T22:11:24.284Z,24.3
2019-05-02T22:21:23.498Z,24.3
2019-05-02T22:31:22.783Z,24.3
2019-05-02T22:41:22.160Z,24.3
2019-05-02T22:51:22.486Z,24.3
2019-05-02T23:01:21.592Z,24.3
2019-05-02T23:11:19.571Z,24.3
2019-05-02T23:21:18.774Z,24.3
2019-05-02T23:31:17.989Z,24.3
2019-05-02T23:41:17.197Z,24.3
2019-05-02T23:51:16.418Z,24.3
